MDT,Max TemperatureF,Mean TemperatureF,Min TemperatureF,Max Dew PointF,MeanDew PointF,Min DewpointF,Max Humidity, Mean Humidity, Min Humidity, Max Sea Level PressureIn, Mean Sea Level PressureIn, Min Sea Level PressureIn, Max VisibilityMiles, Mean VisibilityMiles, Min VisibilityMiles, Max Wind SpeedMPH, Mean Wind SpeedMPH, Max Gust SpeedMPH,PrecipitationIn, CloudCover, Events, WindDirDegrees
2012-9-1,91,78,64,45,32,23,38,24,10,30.18,30.15,30.10,10,10,10,21,8,28,0.00,1,,203
2012-9-2,89,78,66,48,40,30,46,31,12,30.20,30.16,30.12,20,10,6,20,9,43,0.00,3,,280
2012-9-3,87,74,60,46,39,19,55,35,8,30.23,30.19,30.15,20,11,10,22,9,29,0.00,3,,277
2012-9-4,89,74,59,48,26,9,42,24,5,30.20,30.15,30.06,10,10,10,25,8,33,0.00,1,,258
2012-9-5,86,72,59,28,19,9,26,16,6,30.29,30.19,30.08,15,12,10,18,9,36,0.00,0,,280
2012-9-6,87,74,60,54,18,9,35,15,6,30.16,30.11,30.03,20,10,10,21,4,29,0.00,2,,191
2012-9-7,68,60,53,50,40,28,72,51,23,30.42,30.31,30.17,20,13,10,25,13,32,0.00,3,Rain,330
2012-9-8,77,64,51,43,36,18,71,46,11,30.43,30.38,30.31,20,13,10,9,3,,0.00,0,,313
2012-9-9,87,69,51,30,25,9,41,26,5,30.35,30.26,30.11,20,11,10,10,4,,0.00,0,,197
2012-9-10,91,76,60,52,25,16,72,20,7,30.11,30.07,29.98,20,11,10,12,4,22,0.00,2,,135
2012-9-11,82,71,60,55,35,23,82,31,13,30.13,30.03,29.96,15,10,8,14,6,18,0.00,3,Rain,327
2012-9-12,60,55,50,55,49,18,94,83,28,30.43,30.25,30.12,15,8,4,12,4,17,0.00,8,Rain,90
2012-9-13,68,60,51,48,41,25,88,63,21,30.53,30.47,30.43,20,10,5,9,4,,0.00,5,,45
2012-9-14,77,62,48,39,31,16,66,40,10,30.51,30.44,30.33,20,12,10,13,3,16,0.00,0,,162
2012-9-15,86,68,51,34,25,10,47,28,6,30.32,30.26,30.16,10,10,10,12,3,,0.00,1,,229
2012-9-16,86,72,59,30,16,3,30,15,5,30.20,30.14,30.05,20,11,10,25,7,32,0.00,2,,270
2012-9-17,64,57,50,39,36,30,66,47,31,30.24,30.22,30.18,20,14,10,16,7,21,0.00,2,,20
2012-9-18,77,62,48,39,33,21,66,42,12,30.24,30.19,30.13,20,11,8,10,2,,0.00,0,,168
2012-9-19,80,70,59,46,22,18,49,19,10,30.25,30.18,30.13,15,10,8,14,8,17,0.00,3,,294
2012-9-20,80,66,51,32,27,18,47,28,10,30.25,30.20,30.16,20,12,10,16,3,,0.00,1,,283
2012-9-21,77,65,53,32,27,21,41,28,12,30.28,30.21,30.17,20,11,8,10,5,16,0.00,1,,319
2012-9-22,77,64,50,34,30,28,50,32,18,30.35,30.29,30.21,20,11,10,12,8,,0.00,1,,330
2012-9-23,86,70,53,36,27,9,47,28,5,30.25,30.20,30.12,20,11,10,14,3,22,0.00,3,,297
2012-9-24,78,68,59,41,32,21,51,26,12,30.17,30.11,29.99,20,12,10,18,9,26,0.00,3,,273
2012-9-25,68,60,51,52,41,36,100,56,33,30.11,30.05,30.02,20,11,4,13,2,20,0.00,4,Rain,294
2012-9-26,64,57,50,50,47,32,94,80,44,30.24,30.15,30.09,20,11,7,15,3,,0.00,7,Rain-Thunderstorm,307
2012-9-27,66,56,46,50,45,43,88,76,49,30.26,30.22,30.18,20,13,8,18,5,25,0.00,3,Rain-Thunderstorm,301
2012-9-28,69,58,46,45,41,34,87,63,27,30.27,30.22,30.18,10,10,10,10,3,,0.00,1,,306
2012-9-29,77,64,50,43,38,25,71,47,14,30.22,30.18,30.13,20,10,10,10,2,,0.00,2,,10
2012-9-30,73,64,55,41,33,28,58,35,20,30.26,30.20,30.16,20,11,10,25,7,34,0.00,3,,299